Time;durP1;ratioP1;P1;durP2;ratioP2;P2;SDS_P1;SDS_P2;PMS_P1;PMS_P2;Temp;Humidity;BMP_temperature;BMP_pressure;BME280_temperature;BME280_humidity;BME280_pressure;Samples;Min_cycle;Max_cycle;Signal;HPM_P1;HPM_P2
2022/01/17 00:02:03;;;;;;;;;;;5.60;99.90;;;;;;5145629;27;19930;-56
2022/01/17 00:04:29;;;;;;;;;;;5.60;99.90;;;;;;5151600;27;20446;-55
2022/01/17 00:06:55;;;;;;;;;;;5.60;99.90;;;;;;5135967;27;19923;-56
2022/01/17 00:09:22;;;;;;;;;;;5.60;99.90;;;;;;5145814;27;20365;-61
2022/01/17 00:11:49;;;;;;;;;;;5.50;99.90;;;;;;5142901;27;19924;-61
2022/01/17 00:14:16;;;;;;;;;;;5.50;99.90;;;;;;5138329;27;20377;-61
2022/01/17 00:16:48;;;;;;;;;;;5.50;99.90;;;;;;5148981;27;20348;-61
2022/01/17 00:19:38;;;;;;;;;;;5.50;99.90;;;;;;5138596;27;20038;-56
2022/01/17 00:22:03;;;;;;;;;;;5.50;99.90;;;;;;5139703;27;19923;-56
2022/01/17 00:24:28;;;;;;;;;;;5.50;99.90;;;;;;5145147;27;19934;-56
2022/01/17 00:26:54;;;;;;;;;;;5.50;99.90;;;;;;5135688;27;19970;-58
2022/01/17 00:29:20;;;;;;;;;;;5.50;99.90;;;;;;5146029;27;19931;-57
2022/01/17 00:31:45;;;;;;;;;;;5.50;99.90;;;;;;5133206;27;19929;-58
2022/01/17 00:34:11;;;;;;;;;;;6.70;99.90;;;;;;5145716;27;19929;-57
2022/01/17 00:36:36;;;;;;;;;;;5.60;99.90;;;;;;5135613;27;20353;-57
2022/01/17 00:39:02;;;;;;;;;;;5.50;99.90;;;;;;5150164;27;20430;-57
2022/01/17 00:41:28;;;;;;;;;;;5.50;99.90;;;;;;5145024;27;19924;-60
2022/01/17 00:43:54;;;;;;;;;;;5.50;99.90;;;;;;5131712;27;20030;-57
2022/01/17 00:46:20;;;;;;;;;;;5.50;99.90;;;;;;5147277;27;20050;-58
2022/01/17 00:48:46;;;;;;;;;;;5.50;99.90;;;;;;5135336;27;19923;-57
2022/01/17 00:51:11;;;;;;;;;;;5.50;99.90;;;;;;5144300;27;19958;-58
2022/01/17 00:53:37;;;;;;;;;;;5.70;99.90;;;;;;5142894;27;19953;-58
2022/01/17 00:56:03;;;;;;;;;;;5.50;99.90;;;;;;5145010;27;19980;-55
2022/01/17 00:58:29;;;;;;;;;;;5.50;99.90;;;;;;5135632;27;19984;-56
2022/01/17 01:00:54;;;;;;;;;;;5.40;99.90;;;;;;5152059;27;19924;-60
2022/01/17 01:03:21;;;;;;;;;;;5.40;99.90;;;;;;5135819;27;19976;-56
2022/01/17 01:05:47;;;;;;;;;;;5.40;99.90;;;;;;5146725;27;19930;-61
2022/01/17 01:08:12;;;;;;;;;;;5.30;99.90;;;;;;5150476;27;19931;-57
2022/01/17 01:10:38;;;;;;;;;;;5.30;99.90;;;;;;5139511;27;19940;-57
2022/01/17 01:13:03;;;;;;;;;;;5.30;99.90;;;;;;5151039;27;19923;-56
2022/01/17 01:18:12;;;;;;;;;;;5.30;99.90;;;;;;5148494;27;19927;-55
2022/01/17 01:28:34;;;;;;;;;;;5.30;99.90;;;;;;5138685;27;19923;-56
2022/01/17 01:31:03;;;;;;;;;;;5.30;99.90;;;;;;5154484;27;19930;-56
2022/01/17 01:33:35;;;;;;;;;;;5.40;99.90;;;;;;5148133;27;19924;-56
2022/01/17 01:36:09;;;;;;;;;;;5.40;99.90;;;;;;5147882;27;19923;-58
2022/01/17 01:38:38;;;;;;;;;;;5.40;99.90;;;;;;5139021;27;19927;-56
2022/01/17 01:41:04;;;;;;;;;;;5.40;99.90;;;;;;5141911;27;19959;-57
2022/01/17 01:43:29;;;;;;;;;;;5.40;99.90;;;;;;5147787;27;19977;-56
2022/01/17 01:45:59;;;;;;;;;;;5.40;99.90;;;;;;5139256;27;19934;-56
2022/01/17 01:48:25;;;;;;;;;;;5.40;99.90;;;;;;5150928;27;19971;-57
2022/01/17 01:50:50;;;;;;;;;;;5.40;99.90;;;;;;5138915;27;19968;-57
2022/01/17 01:53:16;;;;;;;;;;;5.30;99.90;;;;;;5149240;27;19924;-59
2022/01/17 01:55:42;;;;;;;;;;;5.30;99.90;;;;;;5144766;27;19938;-56
2022/01/17 01:58:08;;;;;;;;;;;5.80;99.90;;;;;;5141992;27;19923;-56
2022/01/17 02:00:34;;;;;;;;;;;5.30;99.90;;;;;;5151736;27;19945;-56
2022/01/17 02:03:00;;;;;;;;;;;5.30;99.90;;;;;;5135150;27;19923;-56
2022/01/17 02:05:25;;;;;;;;;;;5.30;99.90;;;;;;5134867;27;19931;-58
2022/01/17 02:07:51;;;;;;;;;;;5.30;99.90;;;;;;5141692;27;19930;-56
2022/01/17 02:10:17;;;;;;;;;;;5.30;99.90;;;;;;5149605;27;20377;-64
2022/01/17 02:12:42;;;;;;;;;;;5.30;99.90;;;;;;5150276;27;20333;-59
2022/01/17 02:15:12;;;;;;;;;;;5.20;99.90;;;;;;5139630;27;19931;-57
2022/01/17 02:17:44;;;;;;;;;;;5.20;99.90;;;;;;5145960;27;19984;-58
2022/01/17 02:20:13;;;;;;;;;;;5.90;99.90;;;;;;5147507;27;19931;-56
2022/01/17 02:22:39;;;;;;;;;;;5.20;99.90;;;;;;5136720;27;19934;-56
2022/01/17 02:25:05;;;;;;;;;;;5.20;99.90;;;;;;5148053;27;20280;-56
2022/01/17 02:27:30;;;;;;;;;;;5.10;99.90;;;;;;5144843;27;19930;-56
2022/01/17 02:29:56;;;;;;;;;;;5.10;99.90;;;;;;5146370;27;19923;-56
2022/01/17 02:32:21;;;;;;;;;;;5.10;99.90;;;;;;5140695;27;19923;-60
2022/01/17 02:34:47;;;;;;;;;;;5.10;99.90;;;;;;5150868;27;20014;-58
2022/01/17 02:37:13;;;;;;;;;;;5.10;99.90;;;;;;5140544;27;19923;-58
2022/01/17 02:39:39;;;;;;;;;;;5.00;99.90;;;;;;5152393;27;19923;-59
2022/01/17 02:42:05;;;;;;;;;;;5.00;99.90;;;;;;5141695;27;19976;-58
2022/01/17 02:44:31;;;;;;;;;;;5.00;99.90;;;;;;5133747;27;19928;-58
2022/01/17 02:46:58;;;;;;;;;;;5.00;99.90;;;;;;5151140;27;19946;-57
2022/01/17 02:49:23;;;;;;;;;;;5.00;99.90;;;;;;5141591;27;19923;-59
2022/01/17 02:51:51;;;;;;;;;;;5.60;99.90;;;;;;5143532;27;19933;-57
2022/01/17 02:54:17;;;;;;;;;;;5.00;99.90;;;;;;5148167;27;19938;-61
2022/01/17 02:56:43;;;;;;;;;;;5.00;99.90;;;;;;5135916;27;20011;-56
2022/01/17 02:59:09;;;;;;;;;;;5.00;99.90;;;;;;5149784;27;20022;-56
2022/01/17 03:01:35;;;;;;;;;;;5.00;99.90;;;;;;5142211;27;20022;-56
2022/01/17 03:04:00;;;;;;;;;;;5.00;99.90;;;;;;5134065;27;20014;-57
2022/01/17 03:06:27;;;;;;;;;;;5.00;99.90;;;;;;5138837;27;19923;-56
2022/01/17 03:08:52;;;;;;;;;;;5.10;99.90;;;;;;5135979;27;19938;-56
2022/01/17 03:11:20;;;;;;;;;;;5.00;99.90;;;;;;5148017;27;19923;-56
2022/01/17 03:13:47;;;;;;;;;;;5.00;99.90;;;;;;5143939;27;19930;-61
2022/01/17 03:16:15;;;;;;;;;;;5.00;99.90;;;;;;5139188;27;20413;-55
2022/01/17 03:18:50;;;;;;;;;;;5.10;99.90;;;;;;5150630;27;20470;-55
2022/01/17 03:21:16;;;;;;;;;;;5.00;99.90;;;;;;5139448;27;20812;-56
2022/01/17 03:23:43;;;;;;;;;;;5.10;99.90;;;;;;5143592;27;19927;-56
2022/01/17 03:26:08;;;;;;;;;;;5.10;99.90;;;;;;5146770;27;19930;-56
2022/01/17 03:28:34;;;;;;;;;;;5.10;99.90;;;;;;5146418;27;19923;-56
2022/01/17 03:31:00;;;;;;;;;;;5.10;99.90;;;;;;5134719;27;19927;-56
2022/01/17 03:33:26;;;;;;;;;;;5.10;99.90;;;;;;5140825;27;20048;-55
2022/01/17 03:35:52;;;;;;;;;;;5.10;99.90;;;;;;5142125;27;19924;-56
2022/01/17 03:38:20;;;;;;;;;;;5.10;99.90;;;;;;5148280;27;19937;-56
2022/01/17 03:40:50;;;;;;;;;;;5.10;99.90;;;;;;5146783;27;19923;-56
2022/01/17 03:43:16;;;;;;;;;;;5.10;99.90;;;;;;5139640;27;19923;-56
2022/01/17 03:45:42;;;;;;;;;;;5.10;99.90;;;;;;5143723;27;19950;-56
2022/01/17 03:48:08;;;;;;;;;;;5.20;99.90;;;;;;5146604;27;19950;-56
2022/01/17 03:50:34;;;;;;;;;;;5.20;99.90;;;;;;5136180;27;20262;-56
2022/01/17 03:52:59;;;;;;;;;;;5.20;99.90;;;;;;5148332;27;19931;-57
2022/01/17 03:55:27;;;;;;;;;;;5.20;99.90;;;;;;5138243;27;20365;-56
2022/01/17 03:57:52;;;;;;;;;;;5.20;99.90;;;;;;5144353;27;19926;-56
2022/01/17 04:00:20;;;;;;;;;;;5.20;99.90;;;;;;5136696;27;19923;-57
2022/01/17 04:02:46;;;;;;;;;;;5.20;99.90;;;;;;5151658;27;20009;-56
2022/01/17 04:05:11;;;;;;;;;;;5.20;99.90;;;;;;5147279;27;20018;-56
2022/01/17 04:07:37;;;;;;;;;;;5.20;99.90;;;;;;5141475;27;19926;-56
2022/01/17 04:10:02;;;;;;;;;;;5.10;99.90;;;;;;5140398;27;19927;-56
2022/01/17 04:12:28;;;;;;;;;;;5.10;99.90;;;;;;5148977;27;19934;-58
2022/01/17 04:14:55;;;;;;;;;;;5.10;99.90;;;;;;5135640;27;19922;-55
2022/01/17 04:17:26;;;;;;;;;;;5.10;99.90;;;;;;5146564;27;19974;-55
2022/01/17 04:19:59;;;;;;;;;;;5.10;99.90;;;;;;5143724;27;20368;-63
2022/01/17 04:22:24;;;;;;;;;;;5.30;99.90;;;;;;5136838;27;19978;-56
2022/01/17 04:24:50;;;;;;;;;;;5.00;99.90;;;;;;5144731;27;19962;-56
2022/01/17 04:27:16;;;;;;;;;;;5.10;99.90;;;;;;5138336;27;19927;-58
2022/01/17 04:29:41;;;;;;;;;;;5.40;99.90;;;;;;5143163;27;19966;-57
2022/01/17 04:32:07;;;;;;;;;;;5.10;99.90;;;;;;5133510;27;19929;-60
2022/01/17 04:34:34;;;;;;;;;;;5.20;99.90;;;;;;5148362;27;19978;-60
2022/01/17 04:37:00;;;;;;;;;;;3.30;99.90;;;;;;5136303;27;20273;-62
2022/01/17 04:39:25;;;;;;;;;;;5.20;99.90;;;;;;5150107;27;19923;-56
2022/01/17 04:41:51;;;;;;;;;;;5.20;99.90;;;;;;5141823;27;19927;-56
2022/01/17 04:47:01;;;;;;;;;;;5.30;99.90;;;;;;5135927;27;19923;-56
2022/01/17 04:49:26;;;;;;;;;;;5.40;99.90;;;;;;5145029;27;19923;-56
2022/01/17 04:51:54;;;;;;;;;;;5.40;99.90;;;;;;5143580;27;19927;-57
2022/01/17 04:57:05;;;;;;;;;;;5.70;99.90;;;;;;5136589;27;19929;-56
2022/01/17 04:59:30;;;;;;;;;;;5.40;99.90;;;;;;5144688;27;20021;-56
2022/01/17 05:01:56;;;;;;;;;;;5.50;99.90;;;;;;5143759;27;20026;-56
2022/01/17 05:04:21;;;;;;;;;;;5.50;99.90;;;;;;5150674;27;19923;-57
2022/01/17 05:06:47;;;;;;;;;;;5.60;99.90;;;;;;5134943;27;19923;-56
2022/01/17 05:09:12;;;;;;;;;;;5.60;99.90;;;;;;5146759;27;19934;-58
2022/01/17 05:11:40;;;;;;;;;;;5.60;99.90;;;;;;5141317;27;19923;-56
2022/01/17 05:14:05;;;;;;;;;;;5.60;99.90;;;;;;5138462;27;19992;-55
2022/01/17 05:16:36;;;;;;;;;;;5.70;99.90;;;;;;5148272;27;20021;-58
2022/01/17 05:21:45;;;;;;;;;;;5.70;99.90;;;;;;5141922;27;20022;-56
2022/01/17 05:24:11;;;;;;;;;;;5.80;99.90;;;;;;5142006;27;20010;-56
2022/01/17 05:26:37;;;;;;;;;;;5.70;99.90;;;;;;5148357;27;20324;-56
2022/01/17 05:29:02;;;;;;;;;;;5.80;99.90;;;;;;5143528;27;20318;-57
2022/01/17 05:31:28;;;;;;;;;;;6.20;99.90;;;;;;5132842;27;19959;-55
2022/01/17 05:33:53;;;;;;;;;;;5.80;99.90;;;;;;5143235;27;19927;-59
2022/01/17 05:36:19;;;;;;;;;;;5.90;99.90;;;;;;5136618;27;19927;-56
2022/01/17 05:38:44;;;;;;;;;;;5.80;99.90;;;;;;5148599;27;20021;-56
2022/01/17 05:41:10;;;;;;;;;;;5.90;99.90;;;;;;5143695;27;20380;-56
2022/01/17 05:43:36;;;;;;;;;;;5.90;99.90;;;;;;5140447;27;19927;-56
2022/01/17 05:46:01;;;;;;;;;;;5.90;99.90;;;;;;5140057;27;20002;-56
2022/01/17 05:48:27;;;;;;;;;;;6.00;99.90;;;;;;5151671;27;19930;-56
2022/01/17 05:50:53;;;;;;;;;;;6.00;99.90;;;;;;5138522;27;19970;-57
2022/01/17 05:53:18;;;;;;;;;;;6.00;99.90;;;;;;5149454;27;19981;-56
2022/01/17 05:55:46;;;;;;;;;;;6.00;99.90;;;;;;5141626;27;20727;-57
2022/01/17 05:58:12;;;;;;;;;;;6.00;99.90;;;;;;5149177;27;20392;-56
2022/01/17 06:00:38;;;;;;;;;;;7.90;99.90;;;;;;5138330;27;19938;-56
2022/01/17 06:03:03;;;;;;;;;;;6.10;99.90;;;;;;5155558;27;19923;-58
2022/01/17 06:05:29;;;;;;;;;;;6.20;99.90;;;;;;5147371;27;19934;-63
2022/01/17 06:07:55;;;;;;;;;;;6.20;99.90;;;;;;5139109;27;19923;-59
2022/01/17 06:10:20;;;;;;;;;;;6.20;99.90;;;;;;5141508;27;19927;-55
2022/01/17 06:12:46;;;;;;;;;;;6.20;99.90;;;;;;5140085;27;19930;-59
2022/01/17 06:15:11;;;;;;;;;;;6.10;99.90;;;;;;5139871;27;20369;-56
2022/01/17 06:17:37;;;;;;;;;;;6.10;99.90;;;;;;5147971;27;19931;-56
2022/01/17 06:20:06;;;;;;;;;;;6.10;99.90;;;;;;5142278;27;19930;-56
2022/01/17 06:22:32;;;;;;;;;;;6.10;99.90;;;;;;5148774;27;19927;-55
2022/01/17 06:24:57;;;;;;;;;;;6.10;99.90;;;;;;5140782;27;19930;-56
2022/01/17 06:27:23;;;;;;;;;;;6.20;99.90;;;;;;5140564;27;19927;-56
2022/01/17 06:29:48;;;;;;;;;;;6.20;99.90;;;;;;5144792;27;19923;-56
2022/01/17 06:32:14;;;;;;;;;;;6.10;99.90;;;;;;5140546;27;19931;-57
2022/01/17 06:34:40;;;;;;;;;;;6.20;99.90;;;;;;5139259;27;19953;-55
2022/01/17 06:37:05;;;;;;;;;;;6.20;99.90;;;;;;5149243;27;19976;-57
2022/01/17 06:39:31;;;;;;;;;;;6.20;99.90;;;;;;5143514;27;19931;-56
2022/01/17 06:41:56;;;;;;;;;;;6.10;99.90;;;;;;5144399;27;19987;-56
2022/01/17 06:44:22;;;;;;;;;;;6.10;99.90;;;;;;5139086;27;19923;-60
2022/01/17 06:46:47;;;;;;;;;;;6.10;99.90;;;;;;5139574;27;19923;-57
2022/01/17 06:49:13;;;;;;;;;;;6.80;99.90;;;;;;5139325;27;19927;-56
2022/01/17 06:51:39;;;;;;;;;;;6.10;99.90;;;;;;5144412;27;19927;-56
2022/01/17 06:54:04;;;;;;;;;;;6.10;99.90;;;;;;5147099;27;19923;-56
2022/01/17 06:56:30;;;;;;;;;;;6.10;99.90;;;;;;5137524;27;19927;-55
2022/01/17 06:58:56;;;;;;;;;;;6.10;99.90;;;;;;5147294;27;20398;-60
2022/01/17 07:01:21;;;;;;;;;;;6.10;99.90;;;;;;5140782;27;19930;-56
2022/01/17 07:03:47;;;;;;;;;;;6.10;99.90;;;;;;5139654;27;19923;-60
2022/01/17 07:06:13;;;;;;;;;;;6.10;99.90;;;;;;5137008;27;19927;-60
2022/01/17 07:08:39;;;;;;;;;;;6.10;99.90;;;;;;5150568;27;19933;-56
2022/01/17 07:11:05;;;;;;;;;;;6.10;99.90;;;;;;5139476;27;20290;-59
2022/01/17 07:13:30;;;;;;;;;;;6.10;99.90;;;;;;5145718;27;20072;-57
2022/01/17 07:15:56;;;;;;;;;;;6.10;99.90;;;;;;5134745;27;20030;-57
2022/01/17 07:18:21;;;;;;;;;;;6.10;99.90;;;;;;5135906;27;19938;-56
2022/01/17 07:20:47;;;;;;;;;;;6.10;99.90;;;;;;5142665;27;19937;-57
2022/01/17 07:23:13;;;;;;;;;;;6.50;99.90;;;;;;5132232;27;19928;-57
2022/01/17 07:25:39;;;;;;;;;;;6.40;99.90;;;;;;5133511;27;19984;-57
2022/01/17 07:28:06;;;;;;;;;;;6.20;99.90;;;;;;5143604;27;20007;-57
2022/01/17 07:30:31;;;;;;;;;;;6.20;99.90;;;;;;5145770;27;20066;-56
2022/01/17 07:32:57;;;;;;;;;;;6.20;99.90;;;;;;5147536;27;20169;-57
2022/01/17 07:35:22;;;;;;;;;;;6.60;99.90;;;;;;5132044;27;19927;-56
2022/01/17 07:37:48;;;;;;;;;;;6.60;99.90;;;;;;5131164;27;19927;-58
2022/01/17 07:40:14;;;;;;;;;;;6.30;99.90;;;;;;5136759;27;19933;-56
2022/01/17 07:42:39;;;;;;;;;;;6.30;99.90;;;;;;5146493;27;19931;-57
2022/01/17 07:45:16;;;;;;;;;;;6.40;99.90;;;;;;5131861;27;19931;-56
2022/01/17 07:47:46;;;;;;;;;;;6.40;99.90;;;;;;5137077;27;19934;-56
2022/01/17 07:50:13;;;;;;;;;;;6.40;99.90;;;;;;5138089;27;20463;-56
2022/01/17 07:52:38;;;;;;;;;;;6.40;99.90;;;;;;5141379;27;20321;-56
2022/01/17 07:55:04;;;;;;;;;;;6.50;99.90;;;;;;5144953;27;19927;-56
2022/01/17 07:57:30;;;;;;;;;;;6.50;99.90;;;;;;5135347;27;19946;-56
2022/01/17 07:59:55;;;;;;;;;;;6.60;99.90;;;;;;5137053;27;19927;-57
2022/01/17 08:02:21;;;;;;;;;;;6.60;99.90;;;;;;5133013;27;20315;-56
2022/01/17 08:04:46;;;;;;;;;;;6.60;99.90;;;;;;5132278;27;19927;-55
2022/01/17 08:07:12;;;;;;;;;;;6.70;99.90;;;;;;5135822;27;19990;-56
2022/01/17 08:09:37;;;;;;;;;;;6.70;99.90;;;;;;5141930;27;19978;-57
2022/01/17 08:12:04;;;;;;;;;;;6.70;99.90;;;;;;5143695;27;19942;-56
2022/01/17 08:14:29;;;;;;;;;;;6.80;99.90;;;;;;5132905;27;20018;-57
2022/01/17 08:16:55;;;;;;;;;;;6.80;99.90;;;;;;5145859;27;20054;-56
2022/01/17 08:19:24;;;;;;;;;;;6.80;99.90;;;;;;5139216;27;19927;-56
2022/01/17 08:21:51;;;;;;;;;;;7.30;99.90;;;;;;5140516;27;19938;-56
2022/01/17 08:24:21;;;;;;;;;;;6.90;99.90;;;;;;5142331;27;20412;-56
2022/01/17 08:26:46;;;;;;;;;;;7.00;99.90;;;;;;5132179;27;19967;-58
2022/01/17 08:29:12;;;;;;;;;;;7.00;99.90;;;;;;5142343;27;19999;-56
2022/01/17 08:31:38;;;;;;;;;;;7.00;99.90;;;;;;5136646;27;20014;-56
2022/01/17 08:34:04;;;;;;;;;;;7.10;99.90;;;;;;5135792;27;19927;-56
2022/01/17 08:36:29;;;;;;;;;;;7.20;99.90;;;;;;5145202;27;20405;-57
2022/01/17 08:38:55;;;;;;;;;;;7.20;99.90;;;;;;5131325;27;19971;-63
2022/01/17 08:41:21;;;;;;;;;;;7.20;99.90;;;;;;5136014;27;19927;-57
2022/01/17 08:43:47;;;;;;;;;;;7.30;99.90;;;;;;5135476;27;19931;-57
2022/01/17 08:46:12;;;;;;;;;;;7.30;99.90;;;;;;5131558;27;20351;-56
2022/01/17 08:48:38;;;;;;;;;;;7.30;99.90;;;;;;5130532;27;19934;-61
2022/01/17 08:51:04;;;;;;;;;;;7.90;99.90;;;;;;5126915;27;19949;-56
2022/01/17 08:53:30;;;;;;;;;;;7.40;99.90;;;;;;5127629;27;20462;-60
2022/01/17 08:55:55;;;;;;;;;;;7.50;99.90;;;;;;5127094;27;19953;-57
2022/01/17 08:58:21;;;;;;;;;;;7.50;99.90;;;;;;5132057;27;20250;-62
2022/01/17 09:00:46;;;;;;;;;;;7.50;99.90;;;;;;5127607;27;19927;-56
2022/01/17 09:03:13;;;;;;;;;;;7.60;99.90;;;;;;5127322;27;19971;-65
2022/01/17 09:05:38;;;;;;;;;;;7.60;99.90;;;;;;5128902;27;19931;-57
2022/01/17 09:08:04;;;;;;;;;;;7.60;99.90;;;;;;5128889;27;20357;-68
2022/01/17 09:10:31;;;;;;;;;;;7.70;99.90;;;;;;5127160;27;19982;-61
2022/01/17 09:12:57;;;;;;;;;;;7.80;99.90;;;;;;5127173;27;19929;-62
2022/01/17 09:15:23;;;;;;;;;;;7.80;99.90;;;;;;5127388;27;19928;-56
2022/01/17 09:17:48;;;;;;;;;;;7.90;99.90;;;;;;5127921;27;19927;-56
2022/01/17 09:20:14;;;;;;;;;;;8.10;99.90;;;;;;5127402;27;19935;-56
2022/01/17 09:22:40;;;;;;;;;;;8.00;99.90;;;;;;5131668;27;19935;-62
2022/01/17 09:25:06;;;;;;;;;;;8.00;99.90;;;;;;5132999;27;19934;-65
2022/01/17 09:27:32;;;;;;;;;;;8.10;99.90;;;;;;5130651;27;20022;-56
2022/01/17 09:29:58;;;;;;;;;;;8.20;99.90;;;;;;5134175;27;19954;-56
2022/01/17 09:32:24;;;;;;;;;;;8.30;99.90;;;;;;5133473;27;19934;-60
2022/01/17 09:34:52;;;;;;;;;;;8.30;99.90;;;;;;5131655;27;19951;-63
2022/01/17 09:37:18;;;;;;;;;;;8.40;99.90;;;;;;5138352;27;19927;-56
2022/01/17 09:39:43;;;;;;;;;;;8.80;99.90;;;;;;5150201;27;20395;-58
2022/01/17 09:42:09;;;;;;;;;;;9.40;99.90;;;;;;5138631;27;19931;-56
2022/01/17 09:44:36;;;;;;;;;;;8.60;99.90;;;;;;5145362;27;20400;-56
2022/01/17 09:47:09;;;;;;;;;;;8.40;99.90;;;;;;5136532;27;19927;-59
2022/01/17 09:49:42;;;;;;;;;;;8.50;99.90;;;;;;5148860;27;19968;-57
2022/01/17 09:52:54;;;;;;;;;;;8.50;99.90;;;;;;5139489;27;20040;-58
2022/01/17 09:54:55;;;;;;;;;;;8.50;99.90;;;;;;5137361;27;19927;-56
2022/01/17 09:57:22;;;;;;;;;;;8.50;99.90;;;;;;5138882;27;19927;-60
2022/01/17 09:59:47;;;;;;;;;;;8.60;99.90;;;;;;5141843;27;19934;-58
2022/01/17 10:02:13;;;;;;;;;;;8.60;99.90;;;;;;5144866;27;19927;-58
2022/01/17 10:04:39;;;;;;;;;;;8.70;99.90;;;;;;5149804;27;19923;-61
2022/01/17 10:07:06;;;;;;;;;;;8.80;99.90;;;;;;5136409;27;19933;-60
2022/01/17 10:09:33;;;;;;;;;;;8.80;99.90;;;;;;5143615;27;19975;-59
2022/01/17 10:12:00;;;;;;;;;;;9.00;99.90;;;;;;5142541;27;19972;-58
2022/01/17 10:14:27;;;;;;;;;;;8.90;99.90;;;;;;5136119;27;19934;-60
2022/01/17 10:16:53;;;;;;;;;;;9.40;99.90;;;;;;5147000;27;19927;-59
2022/01/17 10:19:21;;;;;;;;;;;8.90;99.90;;;;;;5138107;27;19995;-59
2022/01/17 10:21:50;;;;;;;;;;;9.00;99.90;;;;;;5139613;27;19926;-58
2022/01/17 10:25:03;;;;;;;;;;;9.00;99.90;;;;;;5131117;27;20403;-60
2022/01/17 10:35:36;;;;;;;;;;;10.20;99.90;;;;;;5127711;27;19978;-62
2022/01/17 10:38:12;;;;;;;;;;;9.20;99.90;;;;;;5134880;27;19928;-66
2022/01/17 10:40:40;;;;;;;;;;;9.30;99.90;;;;;;5128988;27;20184;-64
2022/01/17 10:43:06;;;;;;;;;;;9.30;99.90;;;;;;5130581;27;19927;-68
2022/01/17 10:45:41;;;;;;;;;;;9.20;99.90;;;;;;5134018;27;20054;-57
2022/01/17 10:48:07;;;;;;;;;;;9.20;99.90;;;;;;5131614;27;19930;-56
2022/01/17 10:50:35;;;;;;;;;;;9.10;99.90;;;;;;5129657;27;19934;-58
2022/01/17 10:53:03;;;;;;;;;;;9.10;99.90;;;;;;5129007;27;19932;-57
2022/01/17 10:55:33;;;;;;;;;;;9.30;99.90;;;;;;5132392;27;20472;-57
2022/01/17 10:58:08;;;;;;;;;;;9.20;99.90;;;;;;5142437;27;19927;-59
2022/01/17 11:00:43;;;;;;;;;;;8.90;99.90;;;;;;5130064;27;19979;-56
2022/01/17 11:03:13;;;;;;;;;;;9.20;99.90;;;;;;5127009;27;19941;-58
2022/01/17 11:05:40;;;;;;;;;;;9.20;99.90;;;;;;5135492;27;19927;-56
2022/01/17 11:08:06;;;;;;;;;;;9.10;99.90;;;;;;5135071;27;19927;-57
2022/01/17 11:10:37;;;;;;;;;;;9.20;99.90;;;;;;5136334;27;20021;-60
2022/01/17 11:13:04;;;;;;;;;;;9.20;99.90;;;;;;5141651;27;19927;-64
2022/01/17 11:15:32;;;;;;;;;;;9.70;99.90;;;;;;5129099;27;19938;-57
2022/01/17 11:18:03;;;;;;;;;;;9.40;99.90;;;;;;5138586;27;19931;-57
2022/01/17 11:20:29;;;;;;;;;;;9.30;99.90;;;;;;5128055;27;19927;-57
2022/01/17 11:22:57;;;;;;;;;;;9.30;99.90;;;;;;5125989;27;19934;-56
2022/01/17 11:25:24;;;;;;;;;;;9.20;99.90;;;;;;5132318;27;20060;-63
2022/01/17 11:27:50;;;;;;;;;;;9.20;99.90;;;;;;5136251;27;20066;-56
2022/01/17 11:30:16;;;;;;;;;;;9.20;99.90;;;;;;5127656;27;20476;-56
2022/01/17 11:32:46;;;;;;;;;;;9.20;99.90;;;;;;5126869;27;20388;-60
2022/01/17 11:35:13;;;;;;;;;;;9.20;99.90;;;;;;5138091;27;19959;-59
2022/01/17 11:37:41;;;;;;;;;;;9.30;99.90;;;;;;5125484;27;19974;-56
2022/01/17 11:40:08;;;;;;;;;;;9.30;99.90;;;;;;5128083;27;19981;-61
2022/01/17 11:42:36;;;;;;;;;;;9.20;99.90;;;;;;5124317;27;20342;-56
2022/01/17 11:45:22;;;;;;;;;;;9.30;99.90;;;;;;5137354;27;19931;-56
2022/01/17 11:47:55;;;;;;;;;;;9.30;99.90;;;;;;5136746;27;19927;-59
2022/01/17 11:50:31;;;;;;;;;;;9.40;99.90;;;;;;5131017;27;19932;-56
2022/01/17 11:53:19;;;;;;;;;;;9.50;99.90;;;;;;5141305;27;20018;-57
2022/01/17 11:55:46;;;;;;;;;;;9.50;99.90;;;;;;5129123;27;20468;-57
2022/01/17 11:58:28;;;;;;;;;;;9.40;99.90;;;;;;5125278;27;20071;-56
2022/01/17 12:00:57;;;;;;;;;;;9.50;99.90;;;;;;5137221;27;19927;-56
2022/01/17 12:03:23;;;;;;;;;;;9.50;99.90;;;;;;5142575;27;20025;-56
2022/01/17 12:05:49;;;;;;;;;;;9.40;99.90;;;;;;5135026;27;19935;-56
2022/01/17 12:08:17;;;;;;;;;;;9.40;99.90;;;;;;5132160;27;19928;-56
2022/01/17 12:10:45;;;;;;;;;;;9.40;99.90;;;;;;5142327;27;19934;-57
2022/01/17 12:13:10;;;;;;;;;;;9.70;99.90;;;;;;5131811;27;20432;-57
2022/01/17 12:15:55;;;;;;;;;;;9.70;99.90;;;;;;5143970;27;20009;-56
2022/01/17 12:18:30;;;;;;;;;;;9.70;99.90;;;;;;5144255;27;19931;-60
2022/01/17 12:20:56;;;;;;;;;;;9.70;99.90;;;;;;5130614;27;19927;-57
2022/01/17 12:23:23;;;;;;;;;;;9.60;99.90;;;;;;5125411;27;19927;-57
2022/01/17 12:25:49;;;;;;;;;;;9.50;99.90;;;;;;5141696;27;20338;-56
2022/01/17 12:28:17;;;;;;;;;;;9.50;99.90;;;;;;5132792;27;19927;-58
2022/01/17 12:30:49;;;;;;;;;;;9.50;99.90;;;;;;5134784;27;20369;-56
2022/01/17 12:33:27;;;;;;;;;;;9.60;99.90;;;;;;5129993;27;20462;-56
2022/01/17 12:35:53;;;;;;;;;;;9.60;99.90;;;;;;5131289;27;19989;-57
2022/01/17 12:38:41;;;;;;;;;;;9.50;99.90;;;;;;5127621;27;19979;-56
2022/01/17 12:41:07;;;;;;;;;;;9.50;99.90;;;;;;5126410;27;19927;-59
2022/01/17 12:43:33;;;;;;;;;;;9.60;99.90;;;;;;5131285;27;19927;-58
2022/01/17 12:46:07;;;;;;;;;;;9.40;99.90;;;;;;5133432;27;20262;-56
2022/01/17 12:48:36;;;;;;;;;;;9.30;99.90;;;;;;5137684;27;19928;-57
2022/01/17 12:51:05;;;;;;;;;;;9.30;99.90;;;;;;5137357;27;19927;-57
2022/01/17 12:53:31;;;;;;;;;;;9.20;99.90;;;;;;5129351;27;19927;-56
2022/01/17 12:55:58;;;;;;;;;;;9.10;99.90;;;;;;5129750;27;19972;-57
2022/01/17 12:58:28;;;;;;;;;;;9.00;99.90;;;;;;5125689;27;19935;-56
2022/01/17 13:00:58;;;;;;;;;;;9.10;99.90;;;;;;5126062;27;19927;-58
2022/01/17 13:03:25;;;;;;;;;;;9.10;99.90;;;;;;5130144;27;19949;-57
2022/01/17 13:05:52;;;;;;;;;;;9.30;99.90;;;;;;5131284;27;19927;-56
2022/01/17 13:08:18;;;;;;;;;;;9.30;99.90;;;;;;5130518;27;20297;-56
2022/01/17 13:10:43;;;;;;;;;;;9.30;99.90;;;;;;5128819;27;19927;-57
2022/01/17 13:13:15;;;;;;;;;;;9.40;99.90;;;;;;5127420;27;19927;-56
2022/01/17 13:15:56;;;;;;;;;;;9.50;99.90;;;;;;5125061;27;19927;-57
2022/01/17 13:18:22;;;;;;;;;;;9.50;99.90;;;;;;5127269;27;20386;-56
2022/01/17 13:20:47;;;;;;;;;;;9.30;99.90;;;;;;5136953;27;20364;-56
2022/01/17 13:23:18;;;;;;;;;;;9.40;99.90;;;;;;5136579;27;20568;-56
2022/01/17 13:25:43;;;;;;;;;;;9.30;99.90;;;;;;5131011;27;19949;-58
2022/01/17 13:28:09;;;;;;;;;;;9.30;99.90;;;;;;5136574;27;19927;-57
2022/01/17 13:30:35;;;;;;;;;;;9.20;99.90;;;;;;5139864;27;20459;-61
2022/01/17 13:33:02;;;;;;;;;;;9.30;99.90;;;;;;5132715;27;19927;-60
2022/01/17 13:35:28;;;;;;;;;;;9.20;99.90;;;;;;5138147;27;19927;-56
2022/01/17 13:38:05;;;;;;;;;;;9.10;99.90;;;;;;5122496;27;19923;-59
2022/01/17 13:40:33;;;;;;;;;;;9.10;99.90;;;;;;5126763;27;19974;-61
2022/01/17 13:42:59;;;;;;;;;;;9.10;99.90;;;;;;5138159;27;19935;-56
2022/01/17 13:45:29;;;;;;;;;;;9.10;99.90;;;;;;5132254;27;19927;-61
2022/01/17 13:47:55;;;;;;;;;;;9.10;99.90;;;;;;5132116;27;20396;-59
2022/01/17 13:50:20;;;;;;;;;;;9.10;99.90;;;;;;5140758;27;19931;-62
2022/01/17 13:52:46;;;;;;;;;;;9.00;99.90;;;;;;5126517;27;19927;-58
2022/01/17 13:55:30;;;;;;;;;;;9.00;99.90;;;;;;5138819;27;19980;-68
2022/01/17 13:57:57;;;;;;;;;;;9.10;99.90;;;;;;5136365;27;19969;-62
2022/01/17 14:00:23;;;;;;;;;;;9.30;99.90;;;;;;5129439;27;19927;-61
2022/01/17 14:02:50;;;;;;;;;;;9.20;99.90;;;;;;5134936;27;19969;-66
2022/01/17 14:05:28;;;;;;;;;;;9.10;99.90;;;;;;5124428;27;20357;-62
2022/01/17 14:08:08;;;;;;;;;;;9.10;99.90;;;;;;5127601;27;20017;-61
2022/01/17 14:10:34;;;;;;;;;;;9.30;99.90;;;;;;5132025;27;19934;-60
2022/01/17 14:12:59;;;;;;;;;;;9.40;99.90;;;;;;5135382;27;19927;-57
2022/01/17 14:15:26;;;;;;;;;;;9.40;99.90;;;;;;5140411;27;19927;-58
2022/01/17 14:17:51;;;;;;;;;;;9.60;99.90;;;;;;5139031;27;20292;-62
2022/01/17 14:20:18;;;;;;;;;;;9.20;99.90;;;;;;5131443;27;20381;-58
2022/01/17 14:22:50;;;;;;;;;;;9.00;99.90;;;;;;5143672;27;19976;-64
2022/01/17 14:25:17;;;;;;;;;;;8.90;99.90;;;;;;5132221;27;20258;-60
2022/01/17 14:27:54;;;;;;;;;;;8.70;99.90;;;;;;5146805;27;19931;-65
2022/01/17 14:30:27;;;;;;;;;;;8.70;99.90;;;;;;5131104;27;19935;-65
2022/01/17 14:33:12;;;;;;;;;;;8.70;99.90;;;;;;5131907;27;20050;-63
2022/01/17 14:35:38;;;;;;;;;;;8.60;99.90;;;;;;5136926;27;19962;-57
2022/01/17 14:38:03;;;;;;;;;;;8.60;99.90;;;;;;5127215;27;20348;-56
2022/01/17 14:40:32;;;;;;;;;;;8.60;99.90;;;;;;5128204;27;19931;-56
2022/01/17 14:43:13;;;;;;;;;;;8.70;99.90;;;;;;5127022;27;19932;-56
2022/01/17 14:45:38;;;;;;;;;;;8.80;99.90;;;;;;5126844;27;20433;-59
2022/01/17 14:48:12;;;;;;;;;;;8.80;99.90;;;;;;5126028;27;19941;-56
2022/01/17 14:50:38;;;;;;;;;;;8.80;99.90;;;;;;5128307;27;20353;-56
2022/01/17 14:53:03;;;;;;;;;;;8.70;99.90;;;;;;5127737;27;20351;-58
2022/01/17 14:59:28;;;;;;;;;;;8.70;99.90;;;;;;5127238;27;20035;-56
2022/01/17 15:01:23;;;;;;;;;;;8.50;99.90;;;;;;5127502;27;19935;-56
2022/01/17 15:03:56;;;;;;;;;;;8.40;99.90;;;;;;5134516;27;19928;-57